Manhattan Regional Airport
KMHK : now visible

Airfield :











YOU CAN JOIN US ON...

 
LOGIN :

Register | Disclaimer

   EN    FR    IT 

 









Legend :    VFR   Marginal VFR   IFR   Intensive IFR   Very Intensive IFR
Visi :
Ceiling :
>= 8 km
>= 3000ft
5 to 8 km
1000 to 3000 ft
1500m to 5 km
500 to 1000 ft
800 to 1500m
200 to 500 ft
< 800m
< 200 ft
Symbols :   Thunderstorms  Fog  Heavy snow  Heavy precipitations  Wind > 20 kt







- Airport Elevation : 1057 ft
- IATA code : MHK


KMHK - Manhattan Regional

CURRENT METAR :
  • 181952Z 19015G22KT 10SM CLR 37/22 A2973 RMK AO2 SLP053 T03720222

EXPIRED METARs :
  • 181852Z 19013KT 10SM CLR 36/22 A2975 RMK AO2 SLP060 T03610222
  • 181752Z 22011KT 10SM CLR 35/23 A2977 RMK AO2 SLP066 T03500233 10350 20272 56010

TAF KMHK
Valid from the 18 at 18:00 until the 19 at 18:00 UTC


181725Z 1818/1918 20015G23KT P6SM SCT250
FM190300 21011KT P6SM SKC WS015/21040KT
FM191100 20010G20KT P6SM SKC
KZKC FIR / North America



MET'MAP, your aeronautical weather chart ! - Copyright ORBIFLY December 2007 - Disclaimer

ORBIFLY MET'MAP TEAM :

Programming & Development : Alexandra Zaïnal
Concept & Development : Baudouin d'Aumeries
Co-Development & Prog : Marc-Olivier Méhu
Technical & hardware support : Manuel Goepfert

Contact : metmap@orbifly.com




SOURCES & CREDITS :

   NOAA       Earth
Advisory